Terminal Aerodrome Forecast
Issued by NWS

Home | Current Version | Previous Version | Text Only | Print | Product List | Glossary On
Versions: 1 2 3 4 5 6 7 8 9 10 11 12 13
000
FTUS42 KRAH 261726
TAFRWI
TAF
KRWI 261726Z 2618/2718 15005KT P6SM SCT045
     FM270200 19006KT P6SM SKC
     FM271400 VRB03KT P6SM SCT035 SCT080=

USA.gov is the U.S. government's official web portal to all federal, state and local government web resources and services.